createdAt,value
2024-05-09T00:01:59.481Z,16.91
2024-05-09T00:04:30.171Z,17.00
2024-05-09T00:07:00.675Z,16.66
2024-05-09T00:09:33.178Z,16.67
2024-05-09T00:12:03.840Z,16.61
2024-05-09T00:14:33.834Z,16.77
2024-05-09T00:17:03.793Z,16.68
2024-05-09T00:19:34.322Z,16.81
2024-05-09T00:22:04.854Z,16.64
2024-05-09T00:24:38.272Z,16.78
2024-05-09T00:27:10.073Z,16.96
2024-05-09T00:29:41.752Z,16.86
2024-05-09T00:32:12.069Z,16.88
2024-05-09T00:34:43.088Z,16.81
2024-05-09T00:37:13.635Z,16.99
2024-05-09T00:39:46.244Z,16.91
2024-05-09T00:42:16.532Z,16.82
2024-05-09T00:44:46.924Z,17.02
2024-05-09T00:47:18.272Z,16.87
2024-05-09T00:49:49.496Z,16.64
2024-05-09T00:52:20.373Z,16.74
2024-05-09T00:54:53.707Z,16.71
2024-05-09T00:57:24.632Z,16.73
2024-05-09T00:59:56.287Z,16.54
2024-05-09T01:02:28.745Z,16.58
2024-05-09T01:04:59.483Z,16.43
2024-05-09T01:07:30.185Z,16.43
2024-05-09T01:10:11.494Z,16.68
2024-05-09T01:12:44.628Z,16.70
2024-05-09T01:15:20.636Z,16.53
2024-05-09T01:17:51.444Z,16.70
2024-05-09T01:20:31.809Z,16.65
2024-05-09T01:23:14.869Z,16.65
2024-05-09T01:25:47.248Z,16.62
2024-05-09T01:28:17.664Z,16.57
2024-05-09T01:30:47.611Z,16.49
2024-05-09T01:33:17.685Z,16.54
2024-05-09T01:35:47.678Z,16.31
2024-05-09T01:38:20.298Z,16.55
2024-05-09T01:40:51.023Z,16.55
2024-05-09T01:43:21.090Z,16.47
2024-05-09T01:45:51.606Z,16.49
2024-05-09T01:48:22.397Z,16.55
2024-05-09T01:50:56.025Z,16.39
2024-05-09T01:53:29.248Z,16.34
2024-05-09T01:55:59.328Z,16.34
2024-05-09T01:58:30.331Z,16.46
2024-05-09T02:01:00.852Z,16.40
2024-05-09T02:03:31.011Z,16.49
2024-05-09T02:06:01.733Z,16.34
2024-05-09T02:08:34.611Z,16.43
2024-05-09T02:11:05.237Z,16.41
2024-05-09T02:13:35.210Z,16.47
2024-05-09T02:16:05.881Z,16.17
2024-05-09T02:18:36.032Z,16.26
2024-05-09T02:21:06.932Z,16.21
2024-05-09T02:23:39.809Z,16.39
2024-05-09T02:26:10.751Z,16.37
2024-05-09T02:28:41.269Z,16.42
2024-05-09T02:31:14.698Z,16.35
2024-05-09T02:33:45.186Z,16.30
2024-05-09T02:36:15.858Z,16.35
2024-05-09T02:38:46.288Z,16.39
2024-05-09T02:41:16.871Z,16.35
2024-05-09T02:43:44.739Z,16.37
2024-05-09T02:46:15.188Z,16.58
2024-05-09T02:48:43.434Z,16.66
2024-05-09T02:51:14.021Z,16.48
2024-05-09T02:53:41.957Z,16.54
2024-05-09T02:56:15.159Z,16.70
2024-05-09T02:58:42.570Z,16.66
2024-05-09T03:01:12.624Z,16.56
2024-05-09T03:03:43.527Z,16.60
2024-05-09T03:06:14.162Z,16.57
2024-05-09T03:08:44.965Z,16.49
2024-05-09T03:11:26.236Z,16.28
2024-05-09T03:13:55.158Z,16.18
2024-05-09T03:16:25.194Z,16.02
2024-05-09T03:18:54.764Z,16.21
2024-05-09T03:21:24.933Z,16.02
2024-05-09T03:23:52.239Z,16.02
2024-05-09T03:26:25.388Z,16.05
2024-05-09T03:28:53.385Z,16.25
2024-05-09T03:31:23.882Z,15.95
2024-05-09T03:33:52.017Z,16.15
2024-05-09T03:36:22.675Z,16.11
2024-05-09T03:38:53.101Z,15.98
2024-05-09T03:41:26.330Z,16.03
2024-05-09T03:43:56.633Z,15.99
2024-05-09T03:46:26.589Z,16.13
2024-05-09T03:48:55.526Z,16.50
2024-05-09T03:51:26.012Z,16.35
2024-05-09T03:53:53.864Z,16.45
2024-05-09T03:56:26.705Z,16.33
2024-05-09T03:58:55.375Z,16.29
2024-05-09T04:01:25.608Z,16.02
2024-05-09T04:03:53.155Z,16.18
2024-05-09T04:06:26.533Z,16.44
2024-05-09T04:08:53.550Z,16.41
2024-05-09T04:11:29.757Z,16.56
2024-05-09T04:13:57.442Z,16.46
2024-05-09T04:16:27.370Z,16.52
2024-05-09T04:18:55.250Z,16.33
2024-05-09T04:21:25.782Z,16.46
2024-05-09T04:23:53.108Z,16.41
2024-05-09T04:26:23.215Z,16.46
2024-05-09T04:28:56.314Z,16.35
2024-05-09T04:31:29.611Z,16.29
2024-05-09T04:33:57.303Z,16.04
2024-05-09T04:36:27.292Z,16.21
2024-05-09T04:38:54.580Z,16.01
2024-05-09T04:41:24.485Z,16.02
2024-05-09T04:43:55.703Z,15.93
2024-05-09T04:46:26.197Z,16.27
2024-05-09T04:48:54.196Z,16.40
2024-05-09T04:51:25.264Z,16.45
2024-05-09T04:53:53.099Z,16.37
2024-05-09T04:56:23.077Z,16.41
2024-05-09T04:58:50.535Z,16.52
2024-05-09T05:01:23.783Z,16.56
2024-05-09T05:03:51.925Z,16.55
2024-05-09T05:06:22.676Z,16.59
2024-05-09T05:08:50.043Z,16.72
2024-05-09T05:11:20.043Z,16.62
2024-05-09T05:13:50.283Z,16.72
2024-05-09T05:16:20.250Z,16.83
2024-05-09T05:18:50.831Z,16.91
2024-05-09T05:21:21.068Z,16.73
2024-05-09T05:23:48.597Z,16.78
2024-05-09T05:26:20.568Z,16.66
2024-05-09T05:28:48.541Z,16.78
2024-05-09T05:31:21.575Z,16.95
2024-05-09T05:33:52.173Z,16.91
2024-05-09T05:36:23.450Z,16.70
2024-05-09T05:38:51.744Z,16.80
2024-05-09T05:41:21.817Z,17.04
2024-05-09T05:43:49.770Z,16.82
2024-05-09T05:46:20.286Z,16.77
2024-05-09T05:48:47.648Z,16.67
2024-05-09T05:51:20.863Z,16.70
2024-05-09T05:53:48.763Z,16.72
2024-05-09T05:56:19.269Z,16.84
2024-05-09T05:58:47.194Z,17.15
2024-05-09T06:01:17.736Z,16.88
2024-05-09T06:03:45.886Z,16.66
2024-05-09T06:06:16.552Z,16.65
2024-05-09T06:08:47.148Z,16.70
2024-05-09T06:11:17.666Z,16.69
2024-05-09T06:13:45.594Z,16.67
2024-05-09T06:16:15.588Z,16.97
2024-05-09T06:18:43.523Z,17.06
2024-05-09T06:21:13.543Z,17.30
2024-05-09T06:23:48.175Z,17.20
2024-05-09T06:26:18.831Z,17.00
2024-05-09T06:28:46.826Z,17.08
2024-05-09T06:31:17.354Z,17.22
2024-05-09T06:33:45.405Z,17.01
2024-05-09T06:36:16.039Z,16.78
2024-05-09T06:38:44.008Z,16.82
2024-05-09T06:41:17.226Z,16.82
2024-05-09T06:43:45.237Z,16.99
2024-05-09T06:46:15.743Z,17.28
2024-05-09T06:48:43.742Z,17.30
2024-05-09T06:51:13.862Z,17.24
2024-05-09T06:53:41.702Z,17.22
2024-05-09T06:56:11.760Z,17.34
2024-05-09T06:58:41.966Z,17.37
2024-05-09T07:01:11.890Z,17.24
2024-05-09T07:03:44.487Z,17.39
2024-05-09T07:06:12.507Z,17.50
2024-05-09T07:08:43.063Z,17.67
2024-05-09T07:11:10.487Z,17.73
2024-05-09T07:13:40.494Z,17.60
2024-05-09T07:16:10.443Z,18.13
2024-05-09T07:18:41.197Z,18.29
2024-05-09T07:21:09.372Z,18.81
2024-05-09T07:23:39.370Z,18.98
2024-05-09T07:26:07.224Z,18.64
2024-05-09T07:28:37.711Z,18.36
2024-05-09T07:31:05.291Z,18.43
2024-05-09T07:33:38.000Z,18.59
2024-05-09T07:36:06.367Z,18.66
2024-05-09T07:38:37.380Z,18.92
2024-05-09T07:41:06.755Z,19.38
2024-05-09T07:43:37.282Z,19.36
2024-05-09T07:47:04.445Z,19.15
2024-05-09T07:50:35.596Z,18.91
2024-05-09T07:54:19.728Z,18.99
2024-05-09T07:56:47.281Z,19.15
2024-05-09T07:59:17.748Z,19.09
2024-05-09T08:01:45.320Z,19.22
2024-05-09T08:04:18.648Z,19.59
2024-05-09T08:06:46.622Z,19.51
2024-05-09T08:09:20.974Z,19.99
2024-05-09T08:11:52.671Z,19.81
2024-05-09T08:14:23.288Z,19.53
2024-05-09T08:16:51.104Z,19.48
2024-05-09T08:19:23.693Z,19.02
2024-05-09T08:21:51.378Z,19.41
2024-05-09T08:24:21.414Z,19.64
2024-05-09T08:26:48.765Z,19.68
2024-05-09T08:29:19.205Z,19.86
2024-05-09T08:31:47.059Z,19.83
2024-05-09T08:34:17.680Z,19.76
2024-05-09T08:36:48.336Z,20.14
2024-05-09T08:39:18.316Z,19.59
2024-05-09T08:41:49.736Z,19.65
2024-05-09T08:44:21.306Z,19.81
2024-05-09T08:46:51.804Z,19.74
2024-05-09T08:49:22.389Z,20.10
2024-05-09T08:51:53.322Z,20.06
2024-05-09T08:54:23.393Z,19.99
2024-05-09T08:56:52.552Z,20.14
2024-05-09T08:59:30.105Z,20.19
2024-05-09T09:01:59.173Z,20.17
2024-05-09T09:04:31.371Z,19.98
2024-05-09T09:07:03.560Z,20.00
2024-05-09T09:09:35.245Z,20.41
2024-05-09T09:12:02.863Z,20.50
2024-05-09T09:14:33.362Z,20.34
2024-05-09T09:17:01.257Z,20.49
2024-05-09T09:19:31.821Z,20.41
2024-05-09T09:22:02.528Z,21.07
2024-05-09T09:24:33.011Z,21.23
2024-05-09T09:27:01.161Z,20.75
2024-05-09T09:29:32.006Z,20.73
2024-05-09T09:31:59.520Z,20.28
2024-05-09T09:34:31.419Z,20.82
2024-05-09T09:37:06.488Z,20.88
2024-05-09T09:39:38.064Z,20.90
2024-05-09T09:42:06.700Z,21.28
2024-05-09T09:44:39.598Z,20.96
2024-05-09T09:47:11.157Z,20.88
2024-05-09T09:49:42.328Z,21.09
2024-05-09T09:52:13.515Z,20.88
2024-05-09T09:54:46.659Z,20.73
2024-05-09T09:57:15.279Z,20.86
2024-05-09T09:59:49.576Z,21.25
2024-05-09T10:02:17.586Z,21.47
2024-05-09T10:04:47.792Z,21.74
2024-05-09T10:07:21.374Z,21.85
2024-05-09T10:09:52.151Z,21.55
2024-05-09T10:12:23.712Z,21.69
2024-05-09T10:14:56.839Z,21.55
2024-05-09T10:17:24.341Z,21.54
2024-05-09T10:19:54.328Z,21.63
2024-05-09T10:22:31.047Z,21.35
2024-05-09T10:25:08.110Z,21.59
2024-05-09T10:27:36.103Z,21.48
2024-05-09T10:30:14.354Z,21.62
2024-05-09T10:32:45.700Z,21.48
2024-05-09T10:35:16.003Z,21.49
2024-05-09T10:37:46.850Z,21.54
2024-05-09T10:40:25.912Z,21.68
2024-05-09T10:42:58.423Z,21.63
2024-05-09T10:45:29.314Z,21.86
2024-05-09T10:47:57.587Z,21.60
2024-05-09T10:50:34.021Z,21.45
2024-05-09T10:53:05.559Z,21.86
2024-05-09T10:55:38.933Z,21.64
2024-05-09T10:58:19.171Z,21.41
2024-05-09T11:00:49.196Z,21.61
2024-05-09T11:03:18.531Z,21.64
2024-05-09T11:05:50.086Z,21.77
2024-05-09T11:08:22.125Z,21.84
2024-05-09T11:10:55.078Z,21.95
2024-05-09T11:13:29.610Z,21.90
2024-05-09T11:16:00.443Z,22.11
2024-05-09T11:18:33.271Z,21.84
2024-05-09T11:21:14.692Z,21.73
2024-05-09T11:23:45.237Z,21.88
2024-05-09T11:26:19.282Z,21.90
2024-05-09T11:28:47.153Z,22.24
2024-05-09T11:31:17.966Z,22.61
2024-05-09T11:33:46.762Z,22.64
2024-05-09T11:36:18.083Z,22.90
2024-05-09T11:38:48.682Z,22.59
2024-05-09T11:41:21.521Z,22.32
2024-05-09T11:43:49.442Z,22.03
2024-05-09T11:46:22.501Z,22.32
2024-05-09T11:48:49.721Z,22.26
2024-05-09T11:51:20.263Z,21.97
2024-05-09T11:53:50.767Z,22.21
2024-05-09T11:56:21.245Z,22.26
2024-05-09T11:58:49.122Z,22.68
2024-05-09T12:01:20.125Z,22.26
2024-05-09T12:03:49.638Z,22.61
2024-05-09T12:06:20.414Z,22.63
2024-05-09T12:08:51.008Z,22.44
2024-05-09T12:11:22.256Z,22.46
2024-05-09T12:13:50.159Z,22.49
2024-05-09T12:16:21.018Z,22.19
2024-05-09T12:18:49.113Z,22.42
2024-05-09T12:21:19.740Z,22.50
2024-05-09T12:23:47.624Z,22.52
2024-05-09T12:26:23.203Z,22.79
2024-05-09T12:28:51.019Z,22.92
2024-05-09T12:31:21.544Z,22.99
2024-05-09T12:33:49.460Z,22.58
2024-05-09T12:36:20.022Z,22.44
2024-05-09T12:38:49.989Z,22.65
2024-05-09T12:41:23.213Z,22.62
2024-05-09T12:43:50.531Z,22.66
2024-05-09T12:46:23.375Z,22.72
2024-05-09T12:48:51.190Z,22.53
2024-05-09T12:51:21.134Z,22.63
2024-05-09T12:53:49.055Z,22.72
2024-05-09T12:56:19.094Z,22.74
2024-05-09T12:58:51.149Z,22.99
2024-05-09T13:01:21.279Z,23.17
2024-05-09T13:03:49.495Z,23.23
2024-05-09T13:06:19.559Z,23.48
2024-05-09T13:08:47.983Z,23.20
2024-05-09T13:11:18.719Z,23.19
2024-05-09T13:13:46.666Z,23.32
2024-05-09T13:16:19.412Z,23.46
2024-05-09T13:18:47.352Z,23.48
2024-05-09T13:21:17.433Z,23.30
2024-05-09T13:23:45.669Z,23.33
2024-05-09T13:26:16.225Z,23.31
2024-05-09T13:28:43.668Z,23.50
2024-05-09T13:31:14.319Z,23.53
2024-05-09T13:33:45.069Z,23.42
2024-05-09T13:36:15.881Z,23.29
2024-05-09T13:38:43.785Z,23.21
2024-05-09T13:41:16.747Z,23.21
2024-05-09T13:43:44.061Z,23.07
2024-05-09T13:46:14.742Z,23.38
2024-05-09T13:48:45.741Z,23.20
2024-05-09T13:51:15.693Z,23.11
2024-05-09T13:53:43.535Z,23.21
2024-05-09T13:56:14.046Z,23.21
2024-05-09T13:58:42.336Z,23.49
2024-05-09T14:01:12.382Z,23.70
2024-05-09T14:03:40.371Z,23.37
2024-05-09T14:06:13.578Z,23.33
2024-05-09T14:08:41.187Z,23.15
2024-05-09T14:11:11.720Z,23.24
2024-05-09T14:13:39.620Z,23.29
2024-05-09T14:16:10.303Z,23.17
2024-05-09T14:18:38.346Z,23.18
2024-05-09T14:21:08.562Z,23.38
2024-05-09T14:23:39.085Z,23.34
2024-05-09T14:26:12.446Z,23.41
2024-05-09T14:28:40.327Z,23.37
2024-05-09T14:31:10.898Z,23.42
2024-05-09T14:33:38.465Z,23.50
2024-05-09T14:36:09.841Z,23.17
2024-05-09T14:38:40.481Z,23.37
2024-05-09T14:41:13.410Z,23.39
2024-05-09T14:43:41.323Z,23.53
2024-05-09T14:46:12.027Z,23.40
2024-05-09T14:48:40.242Z,23.41
2024-05-09T14:51:11.081Z,23.61
2024-05-09T14:53:41.560Z,23.64
2024-05-09T14:56:11.978Z,23.45
2024-05-09T14:58:39.863Z,23.48
2024-05-09T15:01:09.907Z,23.73
2024-05-09T15:03:37.484Z,23.65
2024-05-09T15:06:07.930Z,23.63
2024-05-09T15:08:35.940Z,23.66
2024-05-09T15:11:09.188Z,23.80
2024-05-09T15:13:37.224Z,23.63
2024-05-09T15:16:08.479Z,23.69
2024-05-09T15:18:36.706Z,23.70
2024-05-09T15:21:08.263Z,23.51
2024-05-09T15:23:36.181Z,23.75
2024-05-09T15:26:08.912Z,23.60
2024-05-09T15:28:36.903Z,23.61
2024-05-09T15:31:07.704Z,23.62
2024-05-09T15:33:35.697Z,23.72
2024-05-09T15:36:06.474Z,23.71
2024-05-09T15:38:33.843Z,23.48
2024-05-09T15:41:04.413Z,23.52
2024-05-09T15:43:35.815Z,23.50
2024-05-09T15:46:05.997Z,23.43
2024-05-09T15:48:34.509Z,23.43
2024-05-09T15:51:05.506Z,23.42
2024-05-09T15:53:33.373Z,23.33
2024-05-09T15:56:03.568Z,23.42
2024-05-09T15:58:31.509Z,23.26
2024-05-09T16:01:04.773Z,23.35
2024-05-09T16:03:32.804Z,23.39
2024-05-09T16:06:03.902Z,23.44
2024-05-09T16:08:32.005Z,23.37
2024-05-09T16:11:02.209Z,23.32
2024-05-09T16:13:30.165Z,23.26
2024-05-09T16:16:00.978Z,23.22
2024-05-09T16:18:31.496Z,23.20
2024-05-09T16:21:02.188Z,23.26
2024-05-09T16:23:30.418Z,23.23
2024-05-09T16:26:00.415Z,23.18
2024-05-09T16:28:28.534Z,23.11
2024-05-09T16:31:01.430Z,23.01
2024-05-09T16:33:32.134Z,23.22
2024-05-09T16:36:02.940Z,23.08
2024-05-09T16:38:31.235Z,23.17
2024-05-09T16:41:01.772Z,23.01
2024-05-09T16:43:29.184Z,22.91
2024-05-09T16:45:59.785Z,22.87
2024-05-09T16:48:27.165Z,22.78
2024-05-09T16:50:59.841Z,22.83
2024-05-09T16:53:27.850Z,22.85
2024-05-09T16:55:57.909Z,22.86
2024-05-09T16:58:26.633Z,22.85
2024-05-09T17:00:57.713Z,22.87
2024-05-09T17:03:25.699Z,22.76
2024-05-09T17:05:59.275Z,22.75
2024-05-09T17:08:27.158Z,22.79
2024-05-09T17:10:58.163Z,22.79
2024-05-09T17:13:28.830Z,22.67
2024-05-09T17:15:56.279Z,22.61
2024-05-09T17:18:27.382Z,22.60
2024-05-09T17:20:57.855Z,22.60
2024-05-09T17:23:29.219Z,22.61
2024-05-09T17:25:57.138Z,22.66
2024-05-09T17:28:27.243Z,22.59
2024-05-09T17:30:58.065Z,22.60
2024-05-09T17:33:25.509Z,22.64
2024-05-09T17:35:55.619Z,22.60
2024-05-09T17:38:26.196Z,22.47
2024-05-09T17:41:00.660Z,22.35
2024-05-09T17:43:29.046Z,22.23
2024-05-09T17:45:59.808Z,22.31
2024-05-09T17:48:27.600Z,22.23
2024-05-09T17:50:58.116Z,22.14
2024-05-09T17:53:28.629Z,22.14
2024-05-09T17:56:00.397Z,22.12
2024-05-09T17:58:28.534Z,22.19
2024-05-09T18:00:58.735Z,22.25
2024-05-09T18:03:27.264Z,22.21
2024-05-09T18:05:58.152Z,22.08
2024-05-09T18:08:28.658Z,22.11
2024-05-09T18:11:02.406Z,21.92
2024-05-09T18:13:30.478Z,21.95
2024-05-09T18:16:01.280Z,21.91
2024-05-09T18:18:32.365Z,21.87
2024-05-09T18:21:02.981Z,21.83
2024-05-09T18:23:33.753Z,21.84
2024-05-09T18:26:05.721Z,21.84
2024-05-09T18:28:33.710Z,21.81
2024-05-09T18:31:04.280Z,21.77
2024-05-09T18:33:31.889Z,21.67
2024-05-09T18:36:02.604Z,21.60
2024-05-09T18:38:35.204Z,21.55
2024-05-09T18:41:02.915Z,21.49
2024-05-09T18:43:38.544Z,21.42
2024-05-09T18:46:12.191Z,21.33
2024-05-09T18:48:43.082Z,21.27
2024-05-09T18:51:11.533Z,21.15
2024-05-09T18:53:45.062Z,21.13
2024-05-09T18:56:16.328Z,21.04
2024-05-09T18:58:46.851Z,20.98
2024-05-09T19:01:14.928Z,20.91
2024-05-09T19:03:45.714Z,20.89
2024-05-09T19:06:13.921Z,20.90
2024-05-09T19:08:47.672Z,20.84
2024-05-09T19:11:15.352Z,20.81
2024-05-09T19:13:45.910Z,20.72
2024-05-09T19:16:13.428Z,20.62
2024-05-09T19:18:44.739Z,20.56
2024-05-09T19:21:14.443Z,20.50
2024-05-09T19:23:52.120Z,20.42
2024-05-09T19:26:20.447Z,20.38
2024-05-09T19:28:50.953Z,20.42
2024-05-09T19:31:18.622Z,20.35
2024-05-09T19:33:48.835Z,20.34
2024-05-09T19:36:19.230Z,20.32
2024-05-09T19:38:52.523Z,20.20
2024-05-09T19:41:20.260Z,20.19
2024-05-09T19:43:50.949Z,20.16
2024-05-09T19:46:19.284Z,20.05
2024-05-09T19:48:49.556Z,20.05
2024-05-09T19:51:17.733Z,20.05
2024-05-09T19:53:48.384Z,20.00
2024-05-09T19:56:19.010Z,19.92
2024-05-09T19:58:49.489Z,19.84
2024-05-09T20:01:17.843Z,19.94
2024-05-09T20:03:48.546Z,19.91
2024-05-09T20:06:16.581Z,19.73
2024-05-09T20:08:46.590Z,19.62
2024-05-09T20:11:15.344Z,19.57
2024-05-09T20:13:48.524Z,19.58
2024-05-09T20:16:16.530Z,19.56
2024-05-09T20:18:47.899Z,19.53
2024-05-09T20:21:15.956Z,19.40
2024-05-09T20:23:45.940Z,19.31
2024-05-09T20:26:13.873Z,19.27
2024-05-09T20:28:44.988Z,19.01
2024-05-09T20:31:20.518Z,18.97
2024-05-09T20:33:51.220Z,19.00
2024-05-09T20:36:19.073Z,18.84
2024-05-09T20:38:49.126Z,18.73
2024-05-09T20:41:16.977Z,18.64
2024-05-09T20:43:47.018Z,18.49
2024-05-09T20:46:17.842Z,18.59
2024-05-09T20:48:48.463Z,18.62
2024-05-09T20:51:15.880Z,18.66
2024-05-09T20:53:45.875Z,18.65
2024-05-09T20:56:15.033Z,18.60
2024-05-09T20:58:45.561Z,18.56
2024-05-09T21:01:13.470Z,18.46
2024-05-09T21:03:47.531Z,18.45
2024-05-09T21:06:15.556Z,18.42
2024-05-09T21:08:46.058Z,18.38
2024-05-09T21:11:13.618Z,18.27
2024-05-09T21:13:44.192Z,18.27
2024-05-09T21:16:11.694Z,18.17
2024-05-09T21:18:42.296Z,18.15
2024-05-09T21:21:12.325Z,18.22
2024-05-09T21:23:42.833Z,18.09
2024-05-09T21:26:10.766Z,17.99
2024-05-09T21:28:40.720Z,17.99
2024-05-09T21:31:08.982Z,18.03
2024-05-09T21:33:39.151Z,17.88
2024-05-09T21:36:11.802Z,17.65
2024-05-09T21:38:43.080Z,17.62
2024-05-09T21:41:10.525Z,17.70
2024-05-09T21:43:41.454Z,17.62
2024-05-09T21:46:09.427Z,17.68
2024-05-09T21:48:40.132Z,17.67
2024-05-09T21:51:15.985Z,17.51
2024-05-09T21:53:45.988Z,17.43
2024-05-09T21:56:13.837Z,17.33
2024-05-09T21:58:43.789Z,17.46
2024-05-09T22:01:11.757Z,17.54
2024-05-09T22:03:42.194Z,17.47
2024-05-09T22:06:10.100Z,17.43
2024-05-09T22:08:43.017Z,17.57
2024-05-09T22:11:10.820Z,17.24
2024-05-09T22:13:44.008Z,17.20
2024-05-09T22:16:12.066Z,17.13
2024-05-09T22:18:42.793Z,17.11
2024-05-09T22:21:10.608Z,17.09
2024-05-09T22:23:43.147Z,17.22
2024-05-09T22:26:10.910Z,17.13
2024-05-09T22:28:40.727Z,17.09
2024-05-09T22:31:08.836Z,16.95
2024-05-09T22:33:39.586Z,16.62
2024-05-09T22:36:08.680Z,16.82
2024-05-09T22:38:39.347Z,16.98
2024-05-09T22:41:09.653Z,17.02
2024-05-09T22:43:40.031Z,17.04
2024-05-09T22:46:10.480Z,16.91
2024-05-09T22:48:38.207Z,16.94
2024-05-09T22:51:08.995Z,16.93
2024-05-09T22:53:36.745Z,16.81
2024-05-09T22:56:08.003Z,16.85
2024-05-09T22:58:38.008Z,16.75
2024-05-09T23:01:08.399Z,16.72
2024-05-09T23:03:39.266Z,16.78
2024-05-09T23:06:09.579Z,16.70
2024-05-09T23:08:36.870Z,16.65
2024-05-09T23:11:08.597Z,16.46
2024-05-09T23:13:39.216Z,16.43
2024-05-09T23:16:10.037Z,16.29
2024-05-09T23:18:37.501Z,16.50
2024-05-09T23:21:07.990Z,16.42
2024-05-09T23:23:35.256Z,16.48
2024-05-09T23:26:05.661Z,16.43
2024-05-09T23:28:33.617Z,16.33
2024-05-09T23:31:07.601Z,16.19
2024-05-09T23:33:35.709Z,16.02
2024-05-09T23:36:06.523Z,15.87
2024-05-09T23:38:33.735Z,15.79
2024-05-09T23:41:06.418Z,15.78
2024-05-09T23:43:36.225Z,15.66
2024-05-09T23:46:09.249Z,15.58
2024-05-09T23:48:37.179Z,15.73
2024-05-09T23:51:07.919Z,15.75
2024-05-09T23:53:35.219Z,15.70
2024-05-09T23:56:05.602Z,15.63
2024-05-09T23:58:33.394Z,15.52
